sensor_id;sensor_type;location;lat;lon;timestamp;pressure;altitude;pressure_sealevel;temperature;humidity
84147;BME280;74267;50.434;7.398;2024-01-25T00:00:16;101991.28;;;9.34;72.37
84147;BME280;74267;50.434;7.398;2024-01-25T00:02:42;101992.59;;;9.38;72.26
84147;BME280;74267;50.434;7.398;2024-01-25T00:05:08;101995.56;;;9.43;71.93
84147;BME280;74267;50.434;7.398;2024-01-25T00:07:33;101993.25;;;9.40;72.00
84147;BME280;74267;50.434;7.398;2024-01-25T00:09:58;101989.94;;;9.46;72.19
84147;BME280;74267;50.434;7.398;2024-01-25T00:12:24;101991.44;;;9.40;72.21
84147;BME280;74267;50.434;7.398;2024-01-25T00:14:49;101989.97;;;9.30;72.70
84147;BME280;74267;50.434;7.398;2024-01-25T00:17:16;101984.19;;;9.26;71.96
84147;BME280;74267;50.434;7.398;2024-01-25T00:19:41;101996.50;;;9.26;72.55
84147;BME280;74267;50.434;7.398;2024-01-25T00:22:06;101994.88;;;9.25;72.86
84147;BME280;74267;50.434;7.398;2024-01-25T00:24:32;101981.41;;;9.20;73.40
84147;BME280;74267;50.434;7.398;2024-01-25T00:26:58;101980.72;;;9.18;73.44
84147;BME280;74267;50.434;7.398;2024-01-25T00:29:23;101975.16;;;9.21;73.23
84147;BME280;74267;50.434;7.398;2024-01-25T00:31:49;101974.47;;;9.19;73.18
84147;BME280;74267;50.434;7.398;2024-01-25T00:34:15;101961.34;;;9.03;73.06
84147;BME280;74267;50.434;7.398;2024-01-25T00:36:41;101968.41;;;9.10;73.93
84147;BME280;74267;50.434;7.398;2024-01-25T00:39:07;101972.16;;;9.00;74.08
84147;BME280;74267;50.434;7.398;2024-01-25T00:41:33;101975.59;;;8.92;74.64
84147;BME280;74267;50.434;7.398;2024-01-25T00:44:00;101989.19;;;8.88;74.03
84147;BME280;74267;50.434;7.398;2024-01-25T00:46:25;101983.94;;;8.88;74.39
84147;BME280;74267;50.434;7.398;2024-01-25T00:48:51;101975.06;;;8.89;75.00
84147;BME280;74267;50.434;7.398;2024-01-25T00:51:21;101990.19;;;8.95;74.65
84147;BME280;74267;50.434;7.398;2024-01-25T00:53:48;101982.78;;;8.90;74.57
84147;BME280;74267;50.434;7.398;2024-01-25T00:56:14;101981.63;;;8.93;74.52
84147;BME280;74267;50.434;7.398;2024-01-25T00:58:39;101978.38;;;8.91;74.59
84147;BME280;74267;50.434;7.398;2024-01-25T01:01:05;101970.03;;;8.95;74.45
84147;BME280;74267;50.434;7.398;2024-01-25T01:03:31;101983.00;;;8.97;75.13
84147;BME280;74267;50.434;7.398;2024-01-25T01:05:56;101993.19;;;9.00;74.77
84147;BME280;74267;50.434;7.398;2024-01-25T01:08:23;102002.03;;;8.99;74.94
84147;BME280;74267;50.434;7.398;2024-01-25T01:10:48;102002.53;;;9.02;74.68
84147;BME280;74267;50.434;7.398;2024-01-25T01:13:13;101992.50;;;9.06;74.81
84147;BME280;74267;50.434;7.398;2024-01-25T01:15:39;102003.38;;;9.03;75.03
84147;BME280;74267;50.434;7.398;2024-01-25T01:18:04;102005.63;;;8.98;75.11
84147;BME280;74267;50.434;7.398;2024-01-25T01:20:30;102009.25;;;8.97;75.68
84147;BME280;74267;50.434;7.398;2024-01-25T01:22:56;102017.47;;;9.02;75.15
84147;BME280;74267;50.434;7.398;2024-01-25T01:25:21;102013.88;;;9.03;75.43
84147;BME280;74267;50.434;7.398;2024-01-25T01:27:47;102018.47;;;9.09;74.83
84147;BME280;74267;50.434;7.398;2024-01-25T01:30:12;102013.53;;;8.98;75.72
84147;BME280;74267;50.434;7.398;2024-01-25T01:32:37;102022.06;;;9.00;75.28
84147;BME280;74267;50.434;7.398;2024-01-25T01:35:03;102021.25;;;9.07;75.14
84147;BME280;74267;50.434;7.398;2024-01-25T01:37:28;102024.03;;;9.06;74.96
84147;BME280;74267;50.434;7.398;2024-01-25T01:39:54;102029.97;;;9.16;75.37
84147;BME280;74267;50.434;7.398;2024-01-25T01:42:21;102023.44;;;9.20;75.67
84147;BME280;74267;50.434;7.398;2024-01-25T01:44:48;102020.16;;;9.18;75.71
84147;BME280;74267;50.434;7.398;2024-01-25T01:47:14;102024.75;;;9.24;75.50
84147;BME280;74267;50.434;7.398;2024-01-25T01:49:40;102022.44;;;9.21;76.07
84147;BME280;74267;50.434;7.398;2024-01-25T01:52:06;102029.03;;;9.25;74.89
84147;BME280;74267;50.434;7.398;2024-01-25T01:54:32;102042.53;;;9.30;75.38
84147;BME280;74267;50.434;7.398;2024-01-25T01:56:58;102036.28;;;9.39;74.65
84147;BME280;74267;50.434;7.398;2024-01-25T01:59:24;102024.28;;;9.44;73.94
84147;BME280;74267;50.434;7.398;2024-01-25T02:01:51;102040.41;;;9.57;73.52
84147;BME280;74267;50.434;7.398;2024-01-25T02:04:16;102046.19;;;9.61;73.48
84147;BME280;74267;50.434;7.398;2024-01-25T02:06:42;102052.75;;;9.57;74.62
84147;BME280;74267;50.434;7.398;2024-01-25T02:09:07;102032.69;;;9.56;73.34
84147;BME280;74267;50.434;7.398;2024-01-25T02:11:33;102035.97;;;9.58;73.65
84147;BME280;74267;50.434;7.398;2024-01-25T02:13:58;102042.88;;;9.59;73.40
84147;BME280;74267;50.434;7.398;2024-01-25T02:16:23;102048.13;;;9.59;73.16
84147;BME280;74267;50.434;7.398;2024-01-25T02:18:49;102048.47;;;9.56;74.40
84147;BME280;74267;50.434;7.398;2024-01-25T02:21:14;102054.38;;;9.58;73.31
84147;BME280;74267;50.434;7.398;2024-01-25T02:23:40;102054.38;;;9.58;73.24
84147;BME280;74267;50.434;7.398;2024-01-25T02:26:06;102046.69;;;9.64;72.73
84147;BME280;74267;50.434;7.398;2024-01-25T02:28:31;102047.00;;;9.61;73.11
84147;BME280;74267;50.434;7.398;2024-01-25T02:30:58;102050.75;;;9.59;73.31
84147;BME280;74267;50.434;7.398;2024-01-25T02:33:24;102058.50;;;9.60;73.62
84147;BME280;74267;50.434;7.398;2024-01-25T02:35:49;102059.84;;;9.64;73.24
84147;BME280;74267;50.434;7.398;2024-01-25T02:38:14;102048.66;;;9.62;72.96
84147;BME280;74267;50.434;7.398;2024-01-25T02:40:40;102046.50;;;9.58;73.23
84147;BME280;74267;50.434;7.398;2024-01-25T02:43:05;102057.69;;;9.60;73.16
84147;BME280;74267;50.434;7.398;2024-01-25T02:45:31;102047.66;;;9.55;73.42
84147;BME280;74267;50.434;7.398;2024-01-25T02:47:56;102046.81;;;9.55;72.99
84147;BME280;74267;50.434;7.398;2024-01-25T02:50:22;102047.34;;;9.58;73.27
84147;BME280;74267;50.434;7.398;2024-01-25T02:52:47;102047.97;;;9.52;72.71
84147;BME280;74267;50.434;7.398;2024-01-25T02:55:12;102054.38;;;9.50;73.49
84147;BME280;74267;50.434;7.398;2024-01-25T02:57:38;102057.66;;;9.52;72.75
84147;BME280;74267;50.434;7.398;2024-01-25T03:00:03;102054.56;;;9.48;73.19
84147;BME280;74267;50.434;7.398;2024-01-25T03:02:29;102067.19;;;9.45;73.29
84147;BME280;74267;50.434;7.398;2024-01-25T03:04:55;102067.19;;;9.45;73.27
84147;BME280;74267;50.434;7.398;2024-01-25T03:07:20;102065.22;;;9.47;73.13
84147;BME280;74267;50.434;7.398;2024-01-25T03:09:45;102066.19;;;9.46;73.26
84147;BME280;74267;50.434;7.398;2024-01-25T03:12:11;102059.66;;;9.50;73.40
84147;BME280;74267;50.434;7.398;2024-01-25T03:14:36;102057.19;;;9.48;72.83
84147;BME280;74267;50.434;7.398;2024-01-25T03:17:01;102071.78;;;9.51;73.32
84147;BME280;74267;50.434;7.398;2024-01-25T03:19:27;102050.09;;;9.49;73.13
84147;BME280;74267;50.434;7.398;2024-01-25T03:21:53;102044.84;;;9.49;73.25
84147;BME280;74267;50.434;7.398;2024-01-25T03:24:22;102051.72;;;9.42;73.12
84147;BME280;74267;50.434;7.398;2024-01-25T03:26:47;102054.03;;;9.45;73.42
84147;BME280;74267;50.434;7.398;2024-01-25T03:29:14;102059.44;;;9.43;73.44
84147;BME280;74267;50.434;7.398;2024-01-25T03:31:39;102057.81;;;9.42;73.26
84147;BME280;74267;50.434;7.398;2024-01-25T03:34:04;102065.22;;;9.47;73.64
84147;BME280;74267;50.434;7.398;2024-01-25T03:36:30;102063.41;;;9.47;73.23
84147;BME280;74267;50.434;7.398;2024-01-25T03:38:56;102068.00;;;9.45;73.05
84147;BME280;74267;50.434;7.398;2024-01-25T03:41:22;102066.84;;;9.48;73.41
84147;BME280;74267;50.434;7.398;2024-01-25T03:43:49;102075.75;;;9.47;74.13
84147;BME280;74267;50.434;7.398;2024-01-25T03:46:14;102074.91;;;9.46;73.45
84147;BME280;74267;50.434;7.398;2024-01-25T03:48:39;102069.16;;;9.43;73.84
84147;BME280;74267;50.434;7.398;2024-01-25T03:51:05;102067.19;;;9.37;74.39
84147;BME280;74267;50.434;7.398;2024-01-25T03:53:30;102058.63;;;9.35;74.24
84147;BME280;74267;50.434;7.398;2024-01-25T03:55:55;102064.19;;;9.32;74.40
84147;BME280;74267;50.434;7.398;2024-01-25T03:58:21;102066.50;;;9.35;74.81
84147;BME280;74267;50.434;7.398;2024-01-25T04:00:46;102053.03;;;9.30;74.50
84147;BME280;74267;50.434;7.398;2024-01-25T04:03:12;102056.47;;;9.22;75.02
84147;BME280;74267;50.434;7.398;2024-01-25T04:05:38;102048.72;;;9.21;74.83
84147;BME280;74267;50.434;7.398;2024-01-25T04:08:05;102054.63;;;9.15;75.38
84147;BME280;74267;50.434;7.398;2024-01-25T04:10:30;102035.22;;;9.16;74.42
84147;BME280;74267;50.434;7.398;2024-01-25T04:12:55;102055.78;;;9.12;75.24
84147;BME280;74267;50.434;7.398;2024-01-25T04:15:21;102066.75;;;9.16;74.74
84147;BME280;74267;50.434;7.398;2024-01-25T04:17:46;102058.25;;;9.14;74.46
84147;BME280;74267;50.434;7.398;2024-01-25T04:20:11;102068.06;;;9.12;74.74
84147;BME280;74267;50.434;7.398;2024-01-25T04:22:37;102064.13;;;9.08;74.46
84147;BME280;74267;50.434;7.398;2024-01-25T04:25:03;102082.97;;;9.03;75.25
84147;BME280;74267;50.434;7.398;2024-01-25T04:27:29;102074.25;;;8.95;75.66
84147;BME280;74267;50.434;7.398;2024-01-25T04:29:55;102080.50;;;8.94;75.19
84147;BME280;74267;50.434;7.398;2024-01-25T04:32:20;102080.44;;;8.86;75.94
84147;BME280;74267;50.434;7.398;2024-01-25T04:34:45;102085.91;;;8.92;75.93
84147;BME280;74267;50.434;7.398;2024-01-25T04:37:14;102088.69;;;8.91;75.99
84147;BME280;74267;50.434;7.398;2024-01-25T04:39:39;102091.00;;;8.94;75.77
84147;BME280;74267;50.434;7.398;2024-01-25T04:42:05;102087.03;;;8.90;75.98
84147;BME280;74267;50.434;7.398;2024-01-25T04:44:30;102092.63;;;8.87;76.12
84147;BME280;74267;50.434;7.398;2024-01-25T04:46:56;102089.00;;;8.88;76.40
84147;BME280;74267;50.434;7.398;2024-01-25T04:49:21;102112.47;;;8.89;76.75
84147;BME280;74267;50.434;7.398;2024-01-25T04:51:46;102114.94;;;8.91;76.24
84147;BME280;74267;50.434;7.398;2024-01-25T04:54:12;102110.84;;;8.88;76.48
84147;BME280;74267;50.434;7.398;2024-01-25T04:56:40;102117.41;;;8.92;76.46
84147;BME280;74267;50.434;7.398;2024-01-25T04:59:06;102113.63;;;8.87;76.44
84147;BME280;74267;50.434;7.398;2024-01-25T05:01:31;102122.47;;;8.86;77.07
84147;BME280;74267;50.434;7.398;2024-01-25T05:03:56;102113.56;;;8.79;77.35
84147;BME280;74267;50.434;7.398;2024-01-25T05:06:21;102121.28;;;8.80;76.96
84147;BME280;74267;50.434;7.398;2024-01-25T05:08:47;102111.75;;;8.79;77.08
84147;BME280;74267;50.434;7.398;2024-01-25T05:11:12;102114.38;;;8.71;76.55
84147;BME280;74267;50.434;7.398;2024-01-25T05:13:37;102116.81;;;8.73;77.43
84147;BME280;74267;50.434;7.398;2024-01-25T05:16:03;102115.69;;;8.75;77.32
84147;BME280;74267;50.434;7.398;2024-01-25T05:18:28;102116.31;;;8.69;77.49
84147;BME280;74267;50.434;7.398;2024-01-25T05:20:54;102122.88;;;8.73;77.13
84147;BME280;74267;50.434;7.398;2024-01-25T05:23:19;102114.53;;;8.78;76.91
84147;BME280;74267;50.434;7.398;2024-01-25T05:25:45;102122.72;;;8.75;76.59
84147;BME280;74267;50.434;7.398;2024-01-25T05:28:10;102118.78;;;8.71;77.72
84147;BME280;74267;50.434;7.398;2024-01-25T05:30:35;102123.03;;;8.72;77.54
84147;BME280;74267;50.434;7.398;2024-01-25T05:33:01;102125.16;;;8.68;78.04
84147;BME280;74267;50.434;7.398;2024-01-25T05:35:26;102118.91;;;8.61;78.01
84147;BME280;74267;50.434;7.398;2024-01-25T05:37:52;102126.09;;;8.59;77.98
84147;BME280;74267;50.434;7.398;2024-01-25T05:40:18;102126.69;;;8.53;77.70
84147;BME280;74267;50.434;7.398;2024-01-25T05:42:43;102130.47;;;8.51;78.13
84147;BME280;74267;50.434;7.398;2024-01-25T05:45:09;102132.34;;;8.41;78.21
84147;BME280;74267;50.434;7.398;2024-01-25T05:47:34;102134.91;;;8.33;78.92
84147;BME280;74267;50.434;7.398;2024-01-25T05:50:00;102130.28;;;8.27;79.45
84147;BME280;74267;50.434;7.398;2024-01-25T05:52:26;102139.25;;;8.24;78.73
84147;BME280;74267;50.434;7.398;2024-01-25T05:54:51;102153.22;;;8.25;78.86
84147;BME280;74267;50.434;7.398;2024-01-25T05:57:16;102152.63;;;8.31;79.01
84147;BME280;74267;50.434;7.398;2024-01-25T05:59:42;102152.63;;;8.31;78.63
84147;BME280;74267;50.434;7.398;2024-01-25T06:02:08;102149.38;;;8.19;78.97
84147;BME280;74267;50.434;7.398;2024-01-25T06:04:34;102154.19;;;8.24;78.97
84147;BME280;74267;50.434;7.398;2024-01-25T06:06:59;102162.78;;;8.16;78.64
84147;BME280;74267;50.434;7.398;2024-01-25T06:09:25;102152.38;;;8.07;78.54
84147;BME280;74267;50.434;7.398;2024-01-25T06:11:51;102165.56;;;8.15;78.44
84147;BME280;74267;50.434;7.398;2024-01-25T06:14:16;102167.97;;;8.08;79.33
84147;BME280;74267;50.434;7.398;2024-01-25T06:16:41;102165.50;;;8.07;78.97
84147;BME280;74267;50.434;7.398;2024-01-25T06:19:08;102168.78;;;8.09;78.54
84147;BME280;74267;50.434;7.398;2024-01-25T06:21:33;102167.44;;;8.05;78.96
84147;BME280;74267;50.434;7.398;2024-01-25T06:24:01;102165.69;;;7.96;78.73
84147;BME280;74267;50.434;7.398;2024-01-25T06:26:26;102160.97;;;7.82;78.73
84147;BME280;74267;50.434;7.398;2024-01-25T06:28:52;102170.41;;;7.75;78.78
84147;BME280;74267;50.434;7.398;2024-01-25T06:31:17;102161.00;;;7.54;79.98
84147;BME280;74267;50.434;7.398;2024-01-25T06:33:42;102164.00;;;7.59;79.66
84147;BME280;74267;50.434;7.398;2024-01-25T06:36:12;102169.16;;;7.51;79.58
84147;BME280;74267;50.434;7.398;2024-01-25T06:38:39;102175.56;;;7.39;80.34
84147;BME280;74267;50.434;7.398;2024-01-25T06:41:04;102180.63;;;7.23;81.14
84147;BME280;74267;50.434;7.398;2024-01-25T06:43:29;102189.47;;;7.13;81.24
84147;BME280;74267;50.434;7.398;2024-01-25T06:45:55;102199.91;;;7.22;80.18
84147;BME280;74267;50.434;7.398;2024-01-25T06:48:20;102207.38;;;7.17;80.53
84147;BME280;74267;50.434;7.398;2024-01-25T06:50:45;102209.47;;;7.04;81.71
84147;BME280;74267;50.434;7.398;2024-01-25T06:53:11;102212.81;;;7.06;81.58
84147;BME280;74267;50.434;7.398;2024-01-25T06:55:36;102213.91;;;6.94;81.37
84147;BME280;74267;50.434;7.398;2024-01-25T06:58:02;102212.81;;;6.97;81.57
84147;BME280;74267;50.434;7.398;2024-01-25T07:00:27;102211.31;;;6.94;80.80
84147;BME280;74267;50.434;7.398;2024-01-25T07:02:52;102212.00;;;6.96;80.66
84147;BME280;74267;50.434;7.398;2024-01-25T07:05:19;102207.47;;;6.79;81.89
84147;BME280;74267;50.434;7.398;2024-01-25T07:07:44;102213.28;;;6.73;82.27
84147;BME280;74267;50.434;7.398;2024-01-25T07:10:10;102205.81;;;6.78;81.14
84147;BME280;74267;50.434;7.398;2024-01-25T07:12:35;102214.38;;;6.80;81.89
84147;BME280;74267;50.434;7.398;2024-01-25T07:15:00;102209.69;;;6.74;82.21
84147;BME280;74267;50.434;7.398;2024-01-25T07:17:26;102215.75;;;6.75;81.59
84147;BME280;74267;50.434;7.398;2024-01-25T07:19:51;102230.63;;;6.74;82.03
84147;BME280;74267;50.434;7.398;2024-01-25T07:22:16;102222.81;;;6.46;81.97
84147;BME280;74267;50.434;7.398;2024-01-25T07:24:44;102224.47;;;6.37;82.53
84147;BME280;74267;50.434;7.398;2024-01-25T07:27:09;102214.13;;;6.45;81.73
84147;BME280;74267;50.434;7.398;2024-01-25T07:29:36;102208.75;;;6.56;80.97
84147;BME280;74267;50.434;7.398;2024-01-25T07:32:02;102209.59;;;6.47;81.79
84147;BME280;74267;50.434;7.398;2024-01-25T07:34:27;102222.94;;;6.25;82.61
84147;BME280;74267;50.434;7.398;2024-01-25T07:36:52;102226.34;;;6.16;82.39
84147;BME280;74267;50.434;7.398;2024-01-25T07:39:18;102226.94;;;6.20;82.43
84147;BME280;74267;50.434;7.398;2024-01-25T07:41:43;102221.28;;;6.15;82.57
84147;BME280;74267;50.434;7.398;2024-01-25T07:44:08;102213.00;;;6.00;82.61
84147;BME280;74267;50.434;7.398;2024-01-25T07:46:34;102218.78;;;5.94;82.71
84147;BME280;74267;50.434;7.398;2024-01-25T07:48:59;102231.97;;;5.93;83.39
84147;BME280;74267;50.434;7.398;2024-01-25T07:51:24;102229.22;;;5.94;83.95
84147;BME280;74267;50.434;7.398;2024-01-25T07:53:53;102226.88;;;6.01;83.44
84147;BME280;74267;50.434;7.398;2024-01-25T07:56:18;102223.91;;;6.15;82.52
84147;BME280;74267;50.434;7.398;2024-01-25T07:58:44;102219.66;;;6.23;81.48
84147;BME280;74267;50.434;7.398;2024-01-25T08:01:09;102215.22;;;6.14;82.40
84147;BME280;74267;50.434;7.398;2024-01-25T08:03:34;102215.75;;;6.08;82.78
84147;BME280;74267;50.434;7.398;2024-01-25T08:06:01;102224.00;;;6.04;82.98
84147;BME280;74267;50.434;7.398;2024-01-25T08:08:27;102216.84;;;5.96;82.96
84147;BME280;74267;50.434;7.398;2024-01-25T08:10:54;102205.72;;;5.94;82.58
84147;BME280;74267;50.434;7.398;2024-01-25T08:13:19;102194.81;;;5.89;83.16
84147;BME280;74267;50.434;7.398;2024-01-25T08:15:45;102198.81;;;5.84;83.00
84147;BME280;74267;50.434;7.398;2024-01-25T08:18:10;102205.28;;;5.89;82.73
84147;BME280;74267;50.434;7.398;2024-01-25T08:20:37;102215.47;;;5.92;82.48
84147;BME280;74267;50.434;7.398;2024-01-25T08:23:03;102209.69;;;5.98;82.63
84147;BME280;74267;50.434;7.398;2024-01-25T08:25:28;102212.75;;;6.03;83.08
84147;BME280;74267;50.434;7.398;2024-01-25T08:27:54;102207.22;;;6.06;82.74
84147;BME280;74267;50.434;7.398;2024-01-25T08:30:19;102217.00;;;6.04;83.11
84147;BME280;74267;50.434;7.398;2024-01-25T08:32:45;102218.81;;;6.13;83.57
84147;BME280;74267;50.434;7.398;2024-01-25T08:35:10;102219.47;;;6.15;83.47
84147;BME280;74267;50.434;7.398;2024-01-25T08:37:35;102218.81;;;6.32;82.72
84147;BME280;74267;50.434;7.398;2024-01-25T08:40:03;102216.88;;;6.34;82.27
84147;BME280;74267;50.434;7.398;2024-01-25T08:42:31;102223.06;;;6.43;82.28
84147;BME280;74267;50.434;7.398;2024-01-25T08:44:56;102225.97;;;6.40;82.83
84147;BME280;74267;50.434;7.398;2024-01-25T08:47:22;102220.19;;;6.46;82.10
84147;BME280;74267;50.434;7.398;2024-01-25T08:49:47;102223.34;;;6.49;82.44
84147;BME280;74267;50.434;7.398;2024-01-25T08:52:12;102220.72;;;6.68;82.90
84147;BME280;74267;50.434;7.398;2024-01-25T08:54:38;102220.03;;;6.76;81.91
84147;BME280;74267;50.434;7.398;2024-01-25T08:57:04;102224.56;;;6.74;82.04
84147;BME280;74267;50.434;7.398;2024-01-25T08:59:30;102234.22;;;6.73;83.24
84147;BME280;74267;50.434;7.398;2024-01-25T09:01:58;102236.25;;;6.79;82.08
84147;BME280;74267;50.434;7.398;2024-01-25T09:04:23;102240.28;;;6.83;82.62
84147;BME280;74267;50.434;7.398;2024-01-25T09:06:48;102229.53;;;6.86;83.21
84147;BME280;74267;50.434;7.398;2024-01-25T09:09:14;102237.50;;;6.94;83.08
84147;BME280;74267;50.434;7.398;2024-01-25T09:11:39;102233.34;;;7.01;82.72
84147;BME280;74267;50.434;7.398;2024-01-25T09:14:05;102238.53;;;7.20;81.00
84147;BME280;74267;50.434;7.398;2024-01-25T09:16:30;102228.16;;;7.28;80.65
84147;BME280;74267;50.434;7.398;2024-01-25T09:18:55;102215.31;;;7.35;80.79
84147;BME280;74267;50.434;7.398;2024-01-25T09:21:21;102219.66;;;7.44;80.22
84147;BME280;74267;50.434;7.398;2024-01-25T09:23:46;102214.28;;;7.45;80.37
84147;BME280;74267;50.434;7.398;2024-01-25T09:26:12;102216.03;;;7.54;79.66
84147;BME280;74267;50.434;7.398;2024-01-25T09:28:37;102208.25;;;7.63;79.38
84147;BME280;74267;50.434;7.398;2024-01-25T09:31:02;102217.59;;;7.75;80.04
84147;BME280;74267;50.434;7.398;2024-01-25T09:33:28;102218.28;;;7.77;79.26
84147;BME280;74267;50.434;7.398;2024-01-25T09:35:55;102220.28;;;7.83;78.55
84147;BME280;74267;50.434;7.398;2024-01-25T09:38:21;102210.44;;;7.94;78.80
84147;BME280;74267;50.434;7.398;2024-01-25T09:40:46;102210.28;;;7.96;78.67
84147;BME280;74267;50.434;7.398;2024-01-25T09:43:12;102206.09;;;8.03;77.70
84147;BME280;74267;50.434;7.398;2024-01-25T09:45:37;102221.03;;;8.02;78.78
84147;BME280;74267;50.434;7.398;2024-01-25T09:48:03;102228.44;;;8.07;77.79
84147;BME280;74267;50.434;7.398;2024-01-25T09:50:30;102245.91;;;8.16;77.27
84147;BME280;74267;50.434;7.398;2024-01-25T09:53:00;102256.22;;;8.27;77.47
84147;BME280;74267;50.434;7.398;2024-01-25T09:55:26;102255.59;;;8.33;77.07
84147;BME280;74267;50.434;7.398;2024-01-25T09:57:55;102258.53;;;8.47;77.05
84147;BME280;74267;50.434;7.398;2024-01-25T10:00:24;102251.50;;;8.48;76.82
84147;BME280;74267;50.434;7.398;2024-01-25T10:02:49;102265.53;;;8.56;76.67
84147;BME280;74267;50.434;7.398;2024-01-25T10:05:16;102257.03;;;8.62;76.25
84147;BME280;74267;50.434;7.398;2024-01-25T10:07:43;102245.31;;;8.74;75.42
84147;BME280;74267;50.434;7.398;2024-01-25T10:10:09;102240.91;;;8.75;75.90
84147;BME280;74267;50.434;7.398;2024-01-25T10:12:36;102228.16;;;8.80;75.00
84147;BME280;74267;50.434;7.398;2024-01-25T10:15:03;102229.47;;;8.84;74.75
84147;BME280;74267;50.434;7.398;2024-01-25T10:17:29;102245.44;;;8.90;74.84
84147;BME280;74267;50.434;7.398;2024-01-25T10:19:55;102244.00;;;8.96;74.29
84147;BME280;74267;50.434;7.398;2024-01-25T10:22:20;102254.19;;;8.99;74.23
84147;BME280;74267;50.434;7.398;2024-01-25T10:24:45;102253.59;;;9.05;73.59
84147;BME280;74267;50.434;7.398;2024-01-25T10:27:11;102259.16;;;9.02;72.78
84147;BME280;74267;50.434;7.398;2024-01-25T10:29:37;102257.66;;;8.99;72.61
84147;BME280;74267;50.434;7.398;2024-01-25T10:32:03;102258.84;;;9.05;72.81
84147;BME280;74267;50.434;7.398;2024-01-25T10:34:30;102249.97;;;9.06;72.90
84147;BME280;74267;50.434;7.398;2024-01-25T10:36:57;102236.59;;;9.17;71.86
84147;BME280;74267;50.434;7.398;2024-01-25T10:39:24;102240.59;;;9.29;71.71
84147;BME280;74267;50.434;7.398;2024-01-25T10:41:50;102236.31;;;9.28;71.41
84147;BME280;74267;50.434;7.398;2024-01-25T10:44:19;102230.78;;;9.39;71.89
84147;BME280;74267;50.434;7.398;2024-01-25T10:46:47;102244.31;;;9.52;70.65
84147;BME280;74267;50.434;7.398;2024-01-25T10:49:13;102241.91;;;9.58;70.43
84147;BME280;74267;50.434;7.398;2024-01-25T10:51:41;102241.75;;;9.60;69.77
84147;BME280;74267;50.434;7.398;2024-01-25T10:54:10;102240.28;;;9.65;69.94
84147;BME280;74267;50.434;7.398;2024-01-25T10:56:37;102230.41;;;9.67;69.58
84147;BME280;74267;50.434;7.398;2024-01-25T10:59:03;102231.63;;;9.81;69.47
84147;BME280;74267;50.434;7.398;2024-01-25T11:01:28;102227.69;;;9.85;69.68
84147;BME280;74267;50.434;7.398;2024-01-25T11:03:54;102219.66;;;9.86;69.12
84147;BME280;74267;50.434;7.398;2024-01-25T11:06:21;102218.81;;;9.86;68.59
84147;BME280;74267;50.434;7.398;2024-01-25T11:08:47;102206.66;;;9.85;68.02
84147;BME280;74267;50.434;7.398;2024-01-25T11:11:14;102202.38;;;9.92;68.51
84147;BME280;74267;50.434;7.398;2024-01-25T11:13:43;102198.13;;;9.99;68.93
84147;BME280;74267;50.434;7.398;2024-01-25T11:16:16;102203.06;;;10.02;68.30
84147;BME280;74267;50.434;7.398;2024-01-25T11:18:52;102202.47;;;10.08;67.91
84147;BME280;74267;50.434;7.398;2024-01-25T11:21:29;102205.44;;;10.13;68.11
84147;BME280;74267;50.434;7.398;2024-01-25T11:24:02;102201.16;;;10.20;67.20
84147;BME280;74267;50.434;7.398;2024-01-25T11:26:28;102188.97;;;10.19;66.64
84147;BME280;74267;50.434;7.398;2024-01-25T11:28:54;102180.44;;;10.17;67.31
84147;BME280;74267;50.434;7.398;2024-01-25T11:31:21;102166.28;;;10.18;67.03
84147;BME280;74267;50.434;7.398;2024-01-25T11:33:47;102159.72;;;10.14;67.17
84147;BME280;74267;50.434;7.398;2024-01-25T11:36:12;102159.06;;;10.20;66.72
84147;BME280;74267;50.434;7.398;2024-01-25T11:38:38;102156.75;;;10.25;67.01
84147;BME280;74267;50.434;7.398;2024-01-25T11:41:03;102158.72;;;10.31;66.95
84147;BME280;74267;50.434;7.398;2024-01-25T11:43:28;102156.44;;;10.36;65.95
84147;BME280;74267;50.434;7.398;2024-01-25T11:45:54;102151.34;;;10.35;65.76
84147;BME280;74267;50.434;7.398;2024-01-25T11:48:20;102143.28;;;10.36;66.21
84147;BME280;74267;50.434;7.398;2024-01-25T11:50:45;102146.88;;;10.35;65.76
84147;BME280;74267;50.434;7.398;2024-01-25T11:53:11;102143.75;;;10.40;65.73
84147;BME280;74267;50.434;7.398;2024-01-25T11:55:36;102147.22;;;10.40;65.87
84147;BME280;74267;50.434;7.398;2024-01-25T11:58:02;102134.03;;;10.40;65.65
84147;BME280;74267;50.434;7.398;2024-01-25T12:00:27;102132.53;;;10.38;65.94
84147;BME280;74267;50.434;7.398;2024-01-25T12:02:53;102131.72;;;10.45;66.23
84147;BME280;74267;50.434;7.398;2024-01-25T12:05:19;102125.13;;;10.49;65.74
84147;BME280;74267;50.434;7.398;2024-01-25T12:07:45;102125.78;;;10.59;65.67
84147;BME280;74267;50.434;7.398;2024-01-25T12:10:15;102117.19;;;10.65;65.53
84147;BME280;74267;50.434;7.398;2024-01-25T12:12:41;102117.03;;;10.67;64.71
84147;BME280;74267;50.434;7.398;2024-01-25T12:15:07;102116.88;;;10.68;64.53
84147;BME280;74267;50.434;7.398;2024-01-25T12:17:33;102108.31;;;10.74;65.27
84147;BME280;74267;50.434;7.398;2024-01-25T12:20:01;102105.81;;;10.81;65.40
84147;BME280;74267;50.434;7.398;2024-01-25T12:22:28;102105.66;;;10.74;65.65
84147;BME280;74267;50.434;7.398;2024-01-25T12:24:54;102096.63;;;10.69;65.16
84147;BME280;74267;50.434;7.398;2024-01-25T12:27:21;102102.69;;;10.69;66.18
84147;BME280;74267;50.434;7.398;2024-01-25T12:29:47;102093.16;;;10.68;65.77
84147;BME280;74267;50.434;7.398;2024-01-25T12:32:13;102081.00;;;10.67;67.30
84147;BME280;74267;50.434;7.398;2024-01-25T12:34:39;102072.94;;;10.69;65.54
84147;BME280;74267;50.434;7.398;2024-01-25T12:37:06;102065.50;;;10.72;65.96
84147;BME280;74267;50.434;7.398;2024-01-25T12:39:32;102081.63;;;10.77;66.76
84147;BME280;74267;50.434;7.398;2024-01-25T12:41:57;102076.34;;;10.69;66.59
84147;BME280;74267;50.434;7.398;2024-01-25T12:44:23;102074.88;;;10.75;67.41
84147;BME280;74267;50.434;7.398;2024-01-25T12:46:48;102078.66;;;10.80;67.20
84147;BME280;74267;50.434;7.398;2024-01-25T12:49:13;102090.00;;;10.89;67.63
84147;BME280;74267;50.434;7.398;2024-01-25T12:51:39;102088.53;;;10.86;66.96